createdAt,value
2023-02-26T00:00:07.522Z,22.6760
2023-02-26T00:00:18.737Z,22.6820
2023-02-26T00:00:29.967Z,22.6870
2023-02-26T00:00:41.131Z,22.6760
2023-02-26T00:00:52.214Z,22.7030
2023-02-26T00:01:03.268Z,22.6930
2023-02-26T00:01:14.402Z,22.6760
2023-02-26T00:01:25.860Z,22.6980
2023-02-26T00:01:36.892Z,22.6900
2023-02-26T00:01:48.055Z,22.6750
2023-02-26T00:01:59.221Z,22.6540
2023-02-26T00:02:10.475Z,22.6710
2023-02-26T00:02:21.620Z,22.6820
2023-02-26T00:02:32.787Z,22.6820
2023-02-26T00:02:43.997Z,22.6710
2023-02-26T00:02:55.242Z,22.6710
2023-02-26T00:03:06.440Z,22.6760
2023-02-26T00:03:17.660Z,22.6870
2023-02-26T00:03:28.843Z,22.7030
2023-02-26T00:03:40.008Z,22.6930
2023-02-26T00:03:51.562Z,22.7030
2023-02-26T00:04:02.710Z,22.6930
2023-02-26T00:04:13.936Z,22.6760
2023-02-26T00:04:25.158Z,22.6980
2023-02-26T00:04:36.329Z,22.6980
2023-02-26T00:04:47.509Z,22.6930
2023-02-26T00:04:58.572Z,22.6930
2023-02-26T00:05:09.649Z,22.6930
2023-02-26T00:05:20.795Z,22.7030
2023-02-26T00:05:32.002Z,22.6980
2023-02-26T00:05:43.198Z,22.6980
2023-02-26T00:05:54.398Z,22.6930
2023-02-26T00:06:05.602Z,22.6870
2023-02-26T00:06:16.789Z,22.6820
2023-02-26T00:06:28.486Z,22.6710
2023-02-26T00:06:40.198Z,22.6980
2023-02-26T00:06:51.359Z,22.6960
2023-02-26T00:07:02.561Z,22.6860
2023-02-26T00:07:13.786Z,22.7120
2023-02-26T00:07:24.827Z,22.7280
2023-02-26T00:07:35.912Z,22.7330
2023-02-26T00:07:47.028Z,22.7280
2023-02-26T00:07:58.232Z,22.7230
2023-02-26T00:08:09.433Z,22.7120
2023-02-26T00:08:20.633Z,22.7120
2023-02-26T00:08:31.842Z,22.7170
2023-02-26T00:08:43.060Z,22.7430
2023-02-26T00:08:54.228Z,22.7470
2023-02-26T00:09:05.474Z,22.7630
2023-02-26T00:09:16.626Z,22.7590
2023-02-26T00:09:27.722Z,22.7750
2023-02-26T00:09:39.026Z,22.7690
2023-02-26T00:09:50.096Z,22.7750
2023-02-26T00:10:01.160Z,22.7690
2023-02-26T00:10:12.401Z,22.7640
2023-02-26T00:10:23.521Z,22.7590
2023-02-26T00:10:34.908Z,22.7800
2023-02-26T00:10:45.986Z,22.7960
2023-02-26T00:10:57.231Z,22.8060
2023-02-26T00:11:08.306Z,22.7970
2023-02-26T00:11:19.518Z,22.8020
2023-02-26T00:11:30.589Z,22.8120
2023-02-26T00:11:41.668Z,22.7860
2023-02-26T00:11:52.802Z,22.7760
2023-02-26T00:12:03.993Z,22.7710
2023-02-26T00:12:15.249Z,22.7750
2023-02-26T00:12:26.732Z,22.8010
2023-02-26T00:12:37.907Z,22.7910
2023-02-26T00:12:49.208Z,22.7960
2023-02-26T00:13:00.314Z,22.8100
2023-02-26T00:13:11.514Z,22.8110
2023-02-26T00:13:22.708Z,22.8160
2023-02-26T00:13:34.003Z,22.8220
2023-02-26T00:13:45.065Z,22.8220
2023-02-26T00:13:56.322Z,22.8110
2023-02-26T00:14:07.443Z,22.8110
2023-02-26T00:14:18.718Z,22.8220
2023-02-26T00:14:29.811Z,22.8220
2023-02-26T00:14:40.887Z,22.8060
2023-02-26T00:14:51.993Z,22.8220
2023-02-26T00:15:03.198Z,22.8270
2023-02-26T00:15:14.289Z,22.8340
2023-02-26T00:15:25.377Z,22.8170
2023-02-26T00:15:36.440Z,22.8070
2023-02-26T00:15:47.690Z,22.8060
2023-02-26T00:15:58.744Z,22.8010
2023-02-26T00:16:09.814Z,22.8160
2023-02-26T00:16:21.007Z,22.8200
2023-02-26T00:16:32.198Z,22.8300
2023-02-26T00:16:43.314Z,22.8600
2023-02-26T00:16:54.496Z,22.8650
2023-02-26T00:17:05.691Z,22.8810
2023-02-26T00:17:16.791Z,22.8650
2023-02-26T00:17:27.881Z,22.8760
2023-02-26T00:17:39.039Z,22.8780
2023-02-26T00:17:50.303Z,22.8620
2023-02-26T00:18:01.348Z,22.8670
2023-02-26T00:18:12.417Z,22.8560
2023-02-26T00:18:23.514Z,22.8510
2023-02-26T00:18:34.706Z,22.8510
2023-02-26T00:18:45.969Z,22.8510
2023-02-26T00:18:57.144Z,22.8560
2023-02-26T00:19:08.313Z,22.8620
2023-02-26T00:19:19.531Z,22.8670
2023-02-26T00:19:30.749Z,22.8940
2023-02-26T00:19:41.922Z,22.8880
2023-02-26T00:19:53.116Z,22.8830
2023-02-26T00:20:04.307Z,22.8950
2023-02-26T00:20:15.521Z,22.8950
2023-02-26T00:20:26.709Z,22.8890
2023-02-26T00:20:37.912Z,22.8790
2023-02-26T00:20:48.948Z,22.8790
2023-02-26T00:21:00.013Z,22.8640
2023-02-26T00:21:11.188Z,22.8690
2023-02-26T00:21:22.387Z,22.8580
2023-02-26T00:21:33.585Z,22.8580
2023-02-26T00:21:44.793Z,22.8950
2023-02-26T00:21:55.990Z,22.8840
2023-02-26T00:22:07.188Z,22.8740
2023-02-26T00:22:18.388Z,22.8790
2023-02-26T00:22:29.588Z,22.8640
2023-02-26T00:22:40.787Z,22.8790
2023-02-26T00:22:51.838Z,22.8840
2023-02-26T00:23:02.897Z,22.8840
2023-02-26T00:23:14.068Z,22.8890
2023-02-26T00:23:25.278Z,22.9000
2023-02-26T00:23:36.468Z,22.9100
2023-02-26T00:23:47.667Z,22.9260
2023-02-26T00:23:58.889Z,22.9260
2023-02-26T00:24:10.087Z,22.9200
2023-02-26T00:24:21.270Z,22.9100
2023-02-26T00:24:32.497Z,22.9100
2023-02-26T00:24:43.668Z,22.9100
2023-02-26T00:24:54.707Z,22.9050
2023-02-26T00:25:05.748Z,22.9050
2023-02-26T00:25:16.965Z,22.9050
2023-02-26T00:25:28.153Z,22.9200
2023-02-26T00:25:39.354Z,22.9100
2023-02-26T00:25:50.570Z,22.9000
2023-02-26T00:26:01.769Z,22.9050
2023-02-26T00:26:12.946Z,22.9170
2023-02-26T00:26:24.164Z,22.9120
2023-02-26T00:26:35.358Z,22.9070
2023-02-26T00:26:46.569Z,22.9120
2023-02-26T00:26:57.596Z,22.9120
2023-02-26T00:27:08.636Z,22.9070
2023-02-26T00:27:19.841Z,22.9010
2023-02-26T00:27:31.048Z,22.9170
2023-02-26T00:27:42.240Z,22.9120
2023-02-26T00:27:53.429Z,22.9120
2023-02-26T00:28:04.646Z,22.9170
2023-02-26T00:28:15.837Z,22.9330
2023-02-26T00:28:27.032Z,22.9330
2023-02-26T00:28:38.263Z,22.9430
2023-02-26T00:28:49.458Z,22.9430
2023-02-26T00:29:00.519Z,22.9380
2023-02-26T00:29:11.571Z,22.9480
2023-02-26T00:29:22.726Z,22.9280
2023-02-26T00:29:33.961Z,22.9430
2023-02-26T00:29:45.120Z,22.9230
2023-02-26T00:29:56.330Z,22.9200
2023-02-26T00:30:07.525Z,22.9420
2023-02-26T00:30:18.726Z,22.9630
2023-02-26T00:30:29.993Z,22.9680
2023-02-26T00:30:41.152Z,22.9470
2023-02-26T00:30:52.387Z,22.9420
2023-02-26T00:31:03.523Z,22.9470
2023-02-26T00:31:14.799Z,22.9580
2023-02-26T00:31:25.935Z,22.9580
2023-02-26T00:31:37.112Z,22.9540
2023-02-26T00:31:48.530Z,22.9540
2023-02-26T00:32:00.008Z,22.9430
2023-02-26T00:32:11.322Z,22.9380
2023-02-26T00:32:22.599Z,22.9380
2023-02-26T00:32:33.878Z,22.9330
2023-02-26T00:32:45.040Z,22.9230
2023-02-26T00:32:56.076Z,22.9280
2023-02-26T00:33:07.297Z,22.9280
2023-02-26T00:33:18.388Z,22.9280
2023-02-26T00:33:29.470Z,22.9120
2023-02-26T00:33:40.659Z,22.9230
2023-02-26T00:33:51.841Z,22.9230
2023-02-26T00:34:02.935Z,22.9280
2023-02-26T00:34:14.176Z,22.9120
2023-02-26T00:34:25.280Z,22.9230
2023-02-26T00:34:36.338Z,22.9070
2023-02-26T00:34:47.514Z,22.9170
2023-02-26T00:34:58.715Z,22.9330
2023-02-26T00:35:09.914Z,22.9380
2023-02-26T00:35:21.121Z,22.9430
2023-02-26T00:35:32.316Z,22.9280
2023-02-26T00:35:43.541Z,22.9170
2023-02-26T00:35:54.726Z,22.9280
2023-02-26T00:36:05.786Z,22.9230
2023-02-26T00:36:16.884Z,22.9070
2023-02-26T00:36:28.384Z,22.9010
2023-02-26T00:36:39.952Z,22.9170
2023-02-26T00:36:51.046Z,22.9070
2023-02-26T00:37:02.115Z,22.9010
2023-02-26T00:37:13.170Z,22.8850
2023-02-26T00:37:24.318Z,22.8960
2023-02-26T00:37:35.518Z,22.8960
2023-02-26T00:37:46.720Z,22.8910
2023-02-26T00:37:57.918Z,22.8850
2023-02-26T00:38:08.979Z,22.8960
2023-02-26T00:38:20.018Z,22.8800
2023-02-26T00:38:31.198Z,22.8850
2023-02-26T00:38:42.407Z,22.8960
2023-02-26T00:38:53.602Z,22.8850
2023-02-26T00:39:04.788Z,22.8750
2023-02-26T00:39:16.006Z,22.8750
2023-02-26T00:39:27.189Z,22.8850
2023-02-26T00:39:38.420Z,22.9010
2023-02-26T00:39:49.589Z,22.9070
2023-02-26T00:40:00.801Z,22.8800
2023-02-26T00:40:11.994Z,22.8800
2023-02-26T00:40:23.208Z,22.8700
2023-02-26T00:40:34.392Z,22.8650
2023-02-26T00:40:45.599Z,22.8960
2023-02-26T00:40:56.801Z,22.8800
2023-02-26T00:41:08.047Z,22.8960
2023-02-26T00:41:19.063Z,22.8910
2023-02-26T00:41:30.210Z,22.8910
2023-02-26T00:41:41.273Z,22.9070
2023-02-26T00:41:52.480Z,22.8850
2023-02-26T00:42:03.669Z,22.8490
2023-02-26T00:42:14.871Z,22.8340
2023-02-26T00:42:26.082Z,22.8440
2023-02-26T00:42:37.281Z,22.8220
2023-02-26T00:42:48.476Z,22.8220
2023-02-26T00:42:59.684Z,22.8600
2023-02-26T00:43:10.880Z,22.8600
2023-02-26T00:43:21.930Z,22.8700
2023-02-26T00:43:32.989Z,22.8850
2023-02-26T00:43:44.157Z,22.8850
2023-02-26T00:43:55.232Z,22.8850
2023-02-26T00:44:06.288Z,22.8910
2023-02-26T00:44:17.455Z,22.8850
2023-02-26T00:44:28.521Z,22.8750
2023-02-26T00:44:39.785Z,22.8700
2023-02-26T00:44:50.828Z,22.8910
2023-02-26T00:45:01.950Z,22.8650
2023-02-26T00:45:13.110Z,22.8600
2023-02-26T00:45:24.154Z,22.8490
2023-02-26T00:45:35.190Z,22.8440
2023-02-26T00:45:46.443Z,22.8600
2023-02-26T00:45:57.627Z,22.8600
2023-02-26T00:46:08.871Z,22.8440
2023-02-26T00:46:20.074Z,22.8390
2023-02-26T00:46:31.226Z,22.8120
2023-02-26T00:46:42.263Z,22.8020
2023-02-26T00:46:53.338Z,22.7920
2023-02-26T00:47:04.478Z,22.7860
2023-02-26T00:47:15.701Z,22.7860
2023-02-26T00:47:26.883Z,22.7920
2023-02-26T00:47:38.096Z,22.8020
2023-02-26T00:47:49.280Z,22.7810
2023-02-26T00:48:00.313Z,22.7760
2023-02-26T00:48:11.379Z,22.7660
2023-02-26T00:48:22.600Z,22.7760
2023-02-26T00:48:33.761Z,22.7660
2023-02-26T00:48:44.965Z,22.7760
2023-02-26T00:48:56.166Z,22.7660
2023-02-26T00:49:07.355Z,22.7660
2023-02-26T00:49:18.555Z,22.7560
2023-02-26T00:49:29.783Z,22.7560
2023-02-26T00:49:41.010Z,22.7560
2023-02-26T00:49:52.050Z,22.7500
2023-02-26T00:50:03.137Z,22.7560
2023-02-26T00:50:14.245Z,22.7290
2023-02-26T00:50:25.436Z,22.7290
2023-02-26T00:50:36.651Z,22.7440
2023-02-26T00:50:47.843Z,22.7390
2023-02-26T00:50:59.061Z,22.7560
2023-02-26T00:51:10.236Z,22.7500
2023-02-26T00:51:21.451Z,22.7440
2023-02-26T00:51:32.629Z,22.7030
2023-02-26T00:51:43.835Z,22.6870
2023-02-26T00:51:54.880Z,22.7130
2023-02-26T00:52:05.947Z,22.7080
2023-02-26T00:52:17.149Z,22.7180
2023-02-26T00:52:28.328Z,22.6980
2023-02-26T00:52:39.515Z,22.6930
2023-02-26T00:52:50.732Z,22.7080
2023-02-26T00:53:01.778Z,22.6980
2023-02-26T00:53:12.830Z,22.6820
2023-02-26T00:53:23.997Z,22.6760
2023-02-26T00:53:35.204Z,22.6610
2023-02-26T00:53:46.389Z,22.6450
2023-02-26T00:53:57.602Z,22.6200
2023-02-26T00:54:08.790Z,22.6250
2023-02-26T00:54:20.062Z,22.6400
2023-02-26T00:54:31.109Z,22.6350
2023-02-26T00:54:42.222Z,22.6300
2023-02-26T00:54:53.287Z,22.6610
2023-02-26T00:55:04.346Z,22.6350
2023-02-26T00:55:15.416Z,22.6090
2023-02-26T00:55:28.493Z,22.6040
2023-02-26T00:55:40.358Z,22.6610
2023-02-26T00:55:51.508Z,22.6350
2023-02-26T00:56:02.713Z,22.6140
2023-02-26T00:56:13.924Z,22.6250
2023-02-26T00:56:25.454Z,22.6090
2023-02-26T00:56:37.045Z,22.6200
2023-02-26T00:56:48.149Z,22.6040
2023-02-26T00:56:59.359Z,22.5930
2023-02-26T00:57:10.549Z,22.5980
2023-02-26T00:57:21.790Z,22.5980
2023-02-26T00:57:32.833Z,22.5930
2023-02-26T00:57:43.890Z,22.5620
2023-02-26T00:57:54.950Z,22.5570
2023-02-26T00:58:06.007Z,22.5720
2023-02-26T00:58:17.068Z,22.5710
2023-02-26T00:58:28.136Z,22.5570
2023-02-26T00:58:39.225Z,22.5720
2023-02-26T00:58:50.411Z,22.5780
2023-02-26T00:59:01.625Z,22.5670
2023-02-26T00:59:12.707Z,22.5720
2023-02-26T00:59:23.749Z,22.5720
2023-02-26T00:59:34.882Z,22.5760
2023-02-26T00:59:46.113Z,22.5540
2023-02-26T00:59:57.156Z,22.5590
2023-02-26T01:00:08.234Z,22.5570
2023-02-26T01:00:19.376Z,22.5360
2023-02-26T01:00:30.558Z,22.5410
2023-02-26T01:00:41.771Z,22.5360
2023-02-26T01:00:53.007Z,22.5250
2023-02-26T01:01:04.162Z,22.5050
2023-02-26T01:01:15.422Z,22.4790
2023-02-26T01:01:26.505Z,22.4790
2023-02-26T01:01:37.633Z,22.4840
2023-02-26T01:01:48.773Z,22.4890
2023-02-26T01:01:59.836Z,22.5000
2023-02-26T01:02:11.056Z,22.4840
2023-02-26T01:02:22.256Z,22.4890
2023-02-26T01:02:33.335Z,22.5100
2023-02-26T01:02:44.400Z,22.4840
2023-02-26T01:02:55.536Z,22.4790
2023-02-26T01:03:06.719Z,22.4710
2023-02-26T01:03:17.802Z,22.4500
2023-02-26T01:03:28.911Z,22.4250
2023-02-26T01:03:40.065Z,22.4550
2023-02-26T01:03:51.271Z,22.4600
2023-02-26T01:04:02.905Z,22.4530
2023-02-26T01:04:13.984Z,22.4740
2023-02-26T01:04:25.142Z,22.4680
2023-02-26T01:04:36.231Z,22.4630
2023-02-26T01:04:47.340Z,22.4660
2023-02-26T01:04:58.438Z,22.4710
2023-02-26T01:05:09.623Z,22.4300
2023-02-26T01:05:20.789Z,22.4320
2023-02-26T01:05:31.833Z,22.4270
2023-02-26T01:05:42.879Z,22.3950
2023-02-26T01:05:54.135Z,22.3690
2023-02-26T01:06:05.278Z,22.3800
2023-02-26T01:06:16.485Z,22.3590
2023-02-26T01:06:27.763Z,22.3800
2023-02-26T01:06:38.875Z,22.4010
2023-02-26T01:06:50.086Z,22.4160
2023-02-26T01:07:01.282Z,22.4110
2023-02-26T01:07:12.473Z,22.4010
2023-02-26T01:07:23.683Z,22.3740
2023-02-26T01:07:34.869Z,22.3590
2023-02-26T01:07:46.087Z,22.3280
2023-02-26T01:07:57.267Z,22.3430
2023-02-26T01:08:08.474Z,22.3320
2023-02-26T01:08:19.670Z,22.3470
2023-02-26T01:08:30.884Z,22.3520
2023-02-26T01:08:41.910Z,22.3620
2023-02-26T01:08:52.984Z,22.3720
2023-02-26T01:09:04.026Z,22.3780
2023-02-26T01:09:15.090Z,22.3630
2023-02-26T01:09:26.161Z,22.3630
2023-02-26T01:09:37.238Z,22.3570
2023-02-26T01:09:48.340Z,22.3690
2023-02-26T01:09:59.516Z,22.3590
2023-02-26T01:10:10.708Z,22.3590
2023-02-26T01:10:21.920Z,22.3590
2023-02-26T01:10:33.110Z,22.3540
2023-02-26T01:10:44.315Z,22.3430
2023-02-26T01:10:55.521Z,22.3360
2023-02-26T01:11:06.721Z,22.3250
2023-02-26T01:11:17.917Z,22.2940
2023-02-26T01:11:28.954Z,22.2840
2023-02-26T01:11:40.016Z,22.2840
2023-02-26T01:11:51.195Z,22.2790
2023-02-26T01:12:02.389Z,22.2940
2023-02-26T01:12:13.593Z,22.3040
2023-02-26T01:12:24.792Z,22.2860
2023-02-26T01:12:36.004Z,22.2960
2023-02-26T01:12:47.197Z,22.2910
2023-02-26T01:12:58.388Z,22.2810
2023-02-26T01:13:09.592Z,22.2750
2023-02-26T01:13:20.788Z,22.2600
2023-02-26T01:13:31.840Z,22.2390
2023-02-26T01:13:42.894Z,22.2080
2023-02-26T01:13:54.068Z,22.1820
2023-02-26T01:14:05.282Z,22.1820
2023-02-26T01:14:16.468Z,22.1720
2023-02-26T01:14:27.673Z,22.1820
2023-02-26T01:14:38.920Z,22.2080
2023-02-26T01:14:50.134Z,22.2030
2023-02-26T01:15:01.217Z,22.2180
2023-02-26T01:15:12.293Z,22.2290
2023-02-26T01:15:23.348Z,22.2180
2023-02-26T01:15:34.609Z,22.2180
2023-02-26T01:15:45.831Z,22.2230
2023-02-26T01:15:57.016Z,22.2290
2023-02-26T01:16:08.142Z,22.2080
2023-02-26T01:16:19.348Z,22.1920
2023-02-26T01:16:30.554Z,22.1960
2023-02-26T01:16:41.757Z,22.1480
2023-02-26T01:16:52.947Z,22.1300
2023-02-26T01:17:04.167Z,22.1510
2023-02-26T01:17:15.356Z,22.1620
2023-02-26T01:17:26.572Z,22.1560
2023-02-26T01:17:37.619Z,22.1740
2023-02-26T01:17:48.704Z,22.1480
2023-02-26T01:17:59.846Z,22.1200
2023-02-26T01:18:10.903Z,22.1140
2023-02-26T01:18:21.971Z,22.1510
2023-02-26T01:18:33.122Z,22.1620
2023-02-26T01:18:44.306Z,22.1510
2023-02-26T01:18:55.524Z,22.1300
2023-02-26T01:19:06.721Z,22.1300
2023-02-26T01:19:17.794Z,22.1350
2023-02-26T01:19:28.863Z,22.1350
2023-02-26T01:19:40.027Z,22.1140
2023-02-26T01:19:51.221Z,22.1090
2023-02-26T01:20:02.302Z,22.1090
2023-02-26T01:20:13.360Z,22.1040
2023-02-26T01:20:24.468Z,22.1060
2023-02-26T01:20:35.703Z,22.1330
2023-02-26T01:20:46.903Z,22.1230
2023-02-26T01:20:58.068Z,22.1280
2023-02-26T01:21:09.275Z,22.1540
2023-02-26T01:21:20.483Z,22.1480
2023-02-26T01:21:31.676Z,22.1430
2023-02-26T01:21:42.876Z,22.1130
2023-02-26T01:21:54.084Z,22.0910
2023-02-26T01:22:05.273Z,22.0790
2023-02-26T01:22:16.484Z,22.0890
2023-02-26T01:22:27.523Z,22.0840
2023-02-26T01:22:38.563Z,22.0670
2023-02-26T01:22:49.755Z,22.0570
2023-02-26T01:23:00.961Z,22.0790
2023-02-26T01:23:12.149Z,22.0840
2023-02-26T01:23:23.366Z,22.0940
2023-02-26T01:23:34.552Z,22.0890
2023-02-26T01:23:45.764Z,22.0720
2023-02-26T01:23:56.954Z,22.0520
2023-02-26T01:24:08.160Z,22.0570
2023-02-26T01:24:19.363Z,22.0570
2023-02-26T01:24:30.415Z,22.0520
2023-02-26T01:24:41.467Z,22.0570
2023-02-26T01:24:52.681Z,22.0420
2023-02-26T01:25:03.834Z,22.0260
2023-02-26T01:25:15.047Z,22.0160
2023-02-26T01:25:26.232Z,22.0210
2023-02-26T01:25:37.496Z,22.0160
2023-02-26T01:25:48.648Z,22.0300
2023-02-26T01:25:59.829Z,22.0460
2023-02-26T01:26:11.056Z,22.0470
2023-02-26T01:26:22.286Z,22.0560
2023-02-26T01:26:33.344Z,22.0410
2023-02-26T01:26:44.407Z,22.0410
2023-02-26T01:26:55.513Z,22.0470
2023-02-26T01:27:06.557Z,22.0260
2023-02-26T01:27:17.631Z,22.0260
2023-02-26T01:27:28.787Z,22.0370
2023-02-26T01:27:39.841Z,22.0060
2023-02-26T01:27:50.867Z,22.0210
2023-02-26T01:28:01.900Z,22.0210
2023-02-26T01:28:12.963Z,22.0310
2023-02-26T01:28:24.157Z,22.0060
2023-02-26T01:28:35.348Z,22.0110
2023-02-26T01:28:46.417Z,22.0110
2023-02-26T01:28:57.492Z,22.0310
2023-02-26T01:29:08.533Z,22.0210
2023-02-26T01:29:19.590Z,22.0310
2023-02-26T01:29:30.713Z,22.0260
2023-02-26T01:29:41.909Z,22.0310
2023-02-26T01:29:52.989Z,22.0160
2023-02-26T01:30:04.055Z,22.0010
2023-02-26T01:30:15.194Z,21.9950
2023-02-26T01:30:26.298Z,22.0010
2023-02-26T01:30:37.384Z,21.9690
2023-02-26T01:30:48.602Z,21.9640
2023-02-26T01:30:59.799Z,21.9590
2023-02-26T01:31:11.028Z,21.9690
2023-02-26T01:31:22.234Z,21.9690
2023-02-26T01:31:33.430Z,21.9740
2023-02-26T01:31:44.746Z,21.9840
2023-02-26T01:31:56.193Z,21.9790
2023-02-26T01:32:07.732Z,21.9950
2023-02-26T01:32:19.174Z,22.0010
2023-02-26T01:32:30.516Z,21.9950
2023-02-26T01:32:41.836Z,21.9840
2023-02-26T01:32:52.948Z,21.9840
2023-02-26T01:33:04.148Z,21.9890
2023-02-26T01:33:15.259Z,21.9690
2023-02-26T01:33:26.342Z,21.9740
2023-02-26T01:33:37.454Z,21.9740
2023-02-26T01:33:48.500Z,21.9590
2023-02-26T01:33:59.542Z,21.9540
2023-02-26T01:34:10.727Z,21.9220
2023-02-26T01:34:21.968Z,21.9170
2023-02-26T01:34:33.107Z,21.9060
2023-02-26T01:34:44.331Z,21.9220
2023-02-26T01:34:55.551Z,21.9330
2023-02-26T01:35:06.713Z,21.9430
2023-02-26T01:35:17.922Z,21.9590
2023-02-26T01:35:29.122Z,21.9690
2023-02-26T01:35:40.307Z,21.9480
2023-02-26T01:35:51.367Z,21.9540
2023-02-26T01:36:02.432Z,21.9540
2023-02-26T01:36:13.594Z,21.9430
2023-02-26T01:36:25.156Z,21.9590
2023-02-26T01:36:36.654Z,21.9740
2023-02-26T01:36:47.714Z,21.9380
2023-02-26T01:36:58.781Z,21.9170
2023-02-26T01:37:09.908Z,21.9220
2023-02-26T01:37:21.115Z,21.9220
2023-02-26T01:37:32.148Z,21.9170
2023-02-26T01:37:43.203Z,21.9120
2023-02-26T01:37:54.233Z,21.9170
2023-02-26T01:38:05.277Z,21.9010
2023-02-26T01:38:16.475Z,21.9010
2023-02-26T01:38:27.674Z,21.9010
2023-02-26T01:38:38.709Z,21.9060
2023-02-26T01:38:49.757Z,21.9120
2023-02-26T01:39:00.818Z,21.9060
2023-02-26T01:39:11.871Z,21.8960
2023-02-26T01:39:22.961Z,21.8910
2023-02-26T01:39:34.005Z,21.8960
2023-02-26T01:39:45.118Z,21.8810
2023-02-26T01:39:56.380Z,21.8860
2023-02-26T01:40:07.523Z,21.8810
2023-02-26T01:40:18.762Z,21.8760
2023-02-26T01:40:29.962Z,21.8910
2023-02-26T01:40:41.161Z,21.8960
2023-02-26T01:40:52.316Z,21.8600
2023-02-26T01:41:03.528Z,21.8430
2023-02-26T01:41:14.641Z,21.8700
2023-02-26T01:41:25.695Z,21.8710
2023-02-26T01:41:36.804Z,21.8660
2023-02-26T01:41:48.103Z,21.8600
2023-02-26T01:41:59.144Z,21.8660
2023-02-26T01:42:10.180Z,21.8760
2023-02-26T01:42:21.248Z,21.8760
2023-02-26T01:42:32.285Z,21.8660
2023-02-26T01:42:43.379Z,21.8660
2023-02-26T01:42:54.560Z,21.8600
2023-02-26T01:43:05.763Z,21.8290
2023-02-26T01:43:16.951Z,21.8480
2023-02-26T01:43:28.072Z,21.8480
2023-02-26T01:43:39.146Z,21.8530
2023-02-26T01:43:50.231Z,21.8480
2023-02-26T01:44:01.452Z,21.8710
2023-02-26T01:44:12.483Z,21.8550
2023-02-26T01:44:23.552Z,21.8660
2023-02-26T01:44:34.618Z,21.8550
2023-02-26T01:44:45.720Z,21.8550
2023-02-26T01:44:56.814Z,21.8550
2023-02-26T01:45:08.002Z,21.8290
2023-02-26T01:45:19.205Z,21.8240
2023-02-26T01:45:30.402Z,21.8500
2023-02-26T01:45:41.701Z,21.8500
2023-02-26T01:45:59.353Z,21.8340
2023-02-26T01:46:10.559Z,21.9160
2023-02-26T01:46:21.817Z,21.8620
2023-02-26T01:46:33.423Z,21.8530
2023-02-26T01:46:45.081Z,21.8480
2023-02-26T01:46:56.297Z,21.8020
2023-02-26T01:47:07.432Z,21.7970
2023-02-26T01:47:18.576Z,21.7760
2023-02-26T01:47:29.758Z,21.7350
2023-02-26T01:47:40.978Z,21.7550
2023-02-26T01:47:52.184Z,21.7590
2023-02-26T01:48:03.375Z,21.7740
2023-02-26T01:48:14.557Z,21.7740
2023-02-26T01:48:26.524Z,21.7860
2023-02-26T01:48:38.378Z,21.8330
2023-02-26T01:48:49.472Z,21.8380
2023-02-26T01:49:01.376Z,21.8380
2023-02-26T01:49:12.511Z,21.8530
2023-02-26T01:49:23.747Z,21.8220
2023-02-26T01:49:34.903Z,21.8480
2023-02-26T01:49:46.092Z,21.8480
2023-02-26T01:49:57.326Z,21.8330
2023-02-26T01:50:08.477Z,21.8220
2023-02-26T01:50:19.672Z,21.8280
2023-02-26T01:50:30.880Z,21.8330
2023-02-26T01:50:42.091Z,21.8180
2023-02-26T01:50:53.286Z,21.7910
2023-02-26T01:51:04.361Z,21.7910
2023-02-26T01:51:15.433Z,21.7860
2023-02-26T01:51:26.570Z,21.7700
2023-02-26T01:51:37.760Z,21.7810
2023-02-26T01:51:48.967Z,21.7510
2023-02-26T01:52:00.158Z,21.7360
2023-02-26T01:52:11.352Z,21.7610
2023-02-26T01:52:22.558Z,21.7710
2023-02-26T01:52:33.756Z,21.7610
2023-02-26T01:52:44.966Z,21.7400
2023-02-26T01:52:56.152Z,21.7450
2023-02-26T01:53:07.192Z,21.7510
2023-02-26T01:53:18.232Z,21.7350
2023-02-26T01:53:29.466Z,21.7450
2023-02-26T01:53:40.635Z,21.7240
2023-02-26T01:53:51.852Z,21.7130
2023-02-26T01:54:03.050Z,21.7030
2023-02-26T01:54:14.233Z,21.7080
2023-02-26T01:54:25.443Z,21.7130
2023-02-26T01:54:36.641Z,21.7080
2023-02-26T01:54:47.843Z,21.7190
2023-02-26T01:54:59.092Z,21.7190
2023-02-26T01:55:10.126Z,21.6880
2023-02-26T01:55:21.185Z,21.6830
2023-02-26T01:55:32.314Z,21.6720
2023-02-26T01:55:43.536Z,21.6720
2023-02-26T01:55:54.711Z,21.6720
2023-02-26T01:56:05.934Z,21.6880
2023-02-26T01:56:17.126Z,21.6830
2023-02-26T01:56:28.379Z,21.7080
2023-02-26T01:56:39.539Z,21.6930
2023-02-26T01:56:50.735Z,21.6770
2023-02-26T01:57:01.931Z,21.6720
2023-02-26T01:57:13.040Z,21.6470
2023-02-26T01:57:24.258Z,21.6310
2023-02-26T01:57:35.330Z,21.6360
2023-02-26T01:57:46.396Z,21.6620
2023-02-26T01:57:57.450Z,21.6670
2023-02-26T01:58:08.513Z,21.6720
2023-02-26T01:58:19.673Z,21.6770
2023-02-26T01:58:30.873Z,21.6770
2023-02-26T01:58:41.964Z,21.6670
2023-02-26T01:58:53.043Z,21.6720
2023-02-26T01:59:04.162Z,21.6620
2023-02-26T01:59:15.363Z,21.6770
2023-02-26T01:59:26.414Z,21.6880
2023-02-26T01:59:37.472Z,21.6830
2023-02-26T01:59:48.689Z,21.6980
2023-02-26T01:59:59.868Z,21.6930
2023-02-26T02:00:11.039Z,21.6620
2023-02-26T02:00:22.262Z,21.6770
2023-02-26T02:00:33.318Z,21.6770
2023-02-26T02:00:44.382Z,21.6880
2023-02-26T02:00:55.519Z,21.6880
2023-02-26T02:01:06.713Z,21.6720
2023-02-26T02:01:17.938Z,21.6570
2023-02-26T02:01:29.113Z,21.6570
2023-02-26T02:01:40.320Z,21.6470
2023-02-26T02:01:51.394Z,21.6470
2023-02-26T02:02:02.436Z,21.6670
2023-02-26T02:02:13.641Z,21.6620
2023-02-26T02:02:24.988Z,21.6570
2023-02-26T02:02:36.464Z,21.6620
2023-02-26T02:02:47.687Z,21.6520
2023-02-26T02:02:58.871Z,21.6410
2023-02-26T02:03:10.425Z,21.6720
2023-02-26T02:03:21.639Z,21.6670
2023-02-26T02:03:32.856Z,21.6770
2023-02-26T02:03:43.971Z,21.6620
2023-02-26T02:03:55.068Z,21.6360
2023-02-26T02:04:06.244Z,21.6100
2023-02-26T02:04:17.449Z,21.6200
2023-02-26T02:04:28.643Z,21.6150
2023-02-26T02:04:39.720Z,21.6200
2023-02-26T02:04:50.791Z,21.6150
2023-02-26T02:05:02.030Z,21.6050
2023-02-26T02:05:13.043Z,21.6200
2023-02-26T02:05:24.088Z,21.5950
2023-02-26T02:05:35.209Z,21.6250
2023-02-26T02:05:46.402Z,21.6250
2023-02-26T02:05:57.521Z,21.6200
2023-02-26T02:06:08.567Z,21.6050
2023-02-26T02:06:19.676Z,21.6000
2023-02-26T02:06:30.902Z,21.6310
2023-02-26T02:06:41.961Z,21.6360
2023-02-26T02:06:53.023Z,21.6330
2023-02-26T02:07:04.164Z,21.6160
2023-02-26T02:07:15.380Z,21.6150
2023-02-26T02:07:26.553Z,21.6000
2023-02-26T02:07:37.765Z,21.6000
2023-02-26T02:07:48.803Z,21.5910
2023-02-26T02:07:59.834Z,21.5810
2023-02-26T02:08:11.056Z,21.5550
2023-02-26T02:08:22.244Z,21.5530
2023-02-26T02:08:33.439Z,21.5580
2023-02-26T02:08:44.637Z,21.5690
2023-02-26T02:08:55.705Z,21.5690
2023-02-26T02:09:06.764Z,21.5800
2023-02-26T02:09:17.922Z,21.5690
2023-02-26T02:09:29.118Z,21.5530
2023-02-26T02:09:40.323Z,21.5630
2023-02-26T02:09:51.525Z,21.5800
2023-02-26T02:10:02.612Z,21.5850
2023-02-26T02:10:13.658Z,21.6000
2023-02-26T02:10:24.790Z,21.6000
2023-02-26T02:10:35.992Z,21.6000
2023-02-26T02:10:47.192Z,21.6010
2023-02-26T02:10:58.399Z,21.6110
2023-02-26T02:11:09.597Z,21.5810
2023-02-26T02:11:20.807Z,21.5650
2023-02-26T02:11:32.016Z,21.5600
2023-02-26T02:11:43.222Z,21.5440
2023-02-26T02:11:54.400Z,21.5750
2023-02-26T02:12:05.599Z,21.5850
2023-02-26T02:12:16.791Z,21.5480
2023-02-26T02:12:27.995Z,21.5430
2023-02-26T02:12:39.219Z,21.5580
2023-02-26T02:12:50.271Z,21.5580
2023-02-26T02:13:01.361Z,21.5850
2023-02-26T02:13:12.426Z,21.5550
2023-02-26T02:13:23.489Z,21.5600
2023-02-26T02:13:34.558Z,21.5500
2023-02-26T02:13:45.771Z,21.5340
2023-02-26T02:13:56.966Z,21.5290
2023-02-26T02:14:08.155Z,21.5230
2023-02-26T02:14:19.201Z,21.5290
2023-02-26T02:14:30.245Z,21.5340
2023-02-26T02:14:41.444Z,21.5170
2023-02-26T02:14:52.635Z,21.5120
2023-02-26T02:15:03.936Z,21.5340
2023-02-26T02:15:14.995Z,21.5330